Time;durP1;ratioP1;P1;durP2;ratioP2;P2;SDS_P1;SDS_P2;PMS_P1;PMS_P2;Temp;Humidity;BMP_temperature;BMP_pressure;BME280_temperature;BME280_humidity;BME280_pressure;Samples;Min_cycle;Max_cycle;Signal;HPM_P1;HPM_P2
2023/03/08 00:00:19;;;;;;;52.80;23.67;;;3.50;99.90;;;;;;4213209;28;20670;-60
2023/03/08 00:02:20;;;;;;;48.50;24.80;;;3.40;99.90;;;;;;4213885;28;20718;-64
2023/03/08 00:04:22;;;;;;;44.27;24.43;;;3.30;99.90;;;;;;4212909;28;20273;-62
2023/03/08 00:06:24;;;;;;;49.93;24.80;;;3.30;99.90;;;;;;4213450;28;20264;-65
2023/03/08 00:08:26;;;;;;;48.17;25.10;;;3.20;99.90;;;;;;4212987;28;20265;-61
2023/03/08 00:10:27;;;;;;;45.63;25.23;;;3.20;99.90;;;;;;4212837;28;20265;-62
2023/03/08 00:12:28;;;;;;;52.20;25.90;;;3.10;99.90;;;;;;4213089;28;20342;-63
2023/03/08 00:14:29;;;;;;;49.40;25.53;;;3.20;99.90;;;;;;4212635;28;20296;-61
2023/03/08 00:16:30;;;;;;;46.57;26.23;;;3.20;99.90;;;;;;4213418;28;20809;-61
2023/03/08 00:18:33;;;;;;;55.70;25.70;;;3.20;99.90;;;;;;4212119;28;21295;-61
2023/03/08 00:20:34;;;;;;;44.30;25.10;;;3.20;99.90;;;;;;4213942;28;20345;-60
2023/03/08 00:22:36;;;;;;;48.17;25.53;;;3.30;99.90;;;;;;4211936;28;20309;-61
2023/03/08 00:24:37;;;;;;;42.37;25.03;;;3.30;99.90;;;;;;4213939;28;20586;-60
2023/03/08 00:26:39;;;;;;;52.30;26.73;;;3.40;99.90;;;;;;4211607;28;20345;-64
2023/03/08 00:28:40;;;;;;;49.87;27.00;;;3.40;99.90;;;;;;4213560;28;20651;-62
2023/03/08 00:30:41;;;;;;;51.17;27.93;;;3.50;99.90;;;;;;4212002;28;20265;-62
2023/03/08 00:32:42;;;;;;;51.30;27.90;;;3.60;99.90;;;;;;4212457;28;20338;-64
2023/03/08 00:34:45;;;;;;;54.57;30.87;;;3.60;99.90;;;;;;4212050;28;20288;-62
2023/03/08 00:36:47;;;;;;;59.87;32.90;;;3.60;99.90;;;;;;4212439;28;20334;-65
2023/03/08 00:38:49;;;;;;;55.07;28.93;;;3.70;99.90;;;;;;4212796;28;20754;-61
2023/03/08 00:40:51;;;;;;;48.70;27.00;;;3.70;99.90;;;;;;4212675;28;20261;-62
2023/03/08 00:42:52;;;;;;;51.17;25.37;;;3.80;99.90;;;;;;4212496;28;20342;-61
2023/03/08 00:44:53;;;;;;;42.77;23.53;;;3.80;99.90;;;;;;4211786;28;20277;-62
2023/03/08 00:46:54;;;;;;;43.47;24.10;;;3.90;99.90;;;;;;4213549;28;20256;-60
2023/03/08 00:48:56;;;;;;;45.83;23.70;;;3.90;99.90;;;;;;4211340;28;20322;-63
2023/03/08 00:50:58;;;;;;;45.40;23.13;;;4.00;99.90;;;;;;4212711;28;20272;-62
2023/03/08 00:52:59;;;;;;;40.30;22.07;;;4.00;99.90;;;;;;4211399;28;20354;-62
2023/03/08 00:55:00;;;;;;;45.67;23.83;;;4.00;99.90;;;;;;4212677;28;20353;-64
2023/03/08 00:57:01;;;;;;;39.33;21.40;;;4.10;99.90;;;;;;4211406;28;20821;-60
2023/03/08 00:59:02;;;;;;;43.50;21.97;;;4.10;99.90;;;;;;4212741;28;20269;-63
2023/03/08 01:01:03;;;;;;;39.13;22.33;;;4.10;99.90;;;;;;4212293;28;20260;-62
2023/03/08 01:03:04;;;;;;;38.03;20.23;;;4.10;99.90;;;;;;4211936;28;20826;-61
2023/03/08 01:05:07;;;;;;;39.53;20.40;;;4.10;99.90;;;;;;4211380;28;20311;-60
2023/03/08 01:07:09;;;;;;;31.80;18.73;;;4.10;99.90;;;;;;4212233;28;20744;-62
2023/03/08 01:09:10;;;;;;;37.13;19.67;;;4.10;99.90;;;;;;4212047;28;20333;-61
2023/03/08 01:11:24;;;;;;;33.30;18.63;;;4.10;99.90;;;;;;4212013;28;20675;-62
2023/03/08 01:13:28;;;;;;;35.20;19.40;;;4.10;99.90;;;;;;4212604;28;20253;-59
2023/03/08 01:15:33;;;;;;;33.40;19.43;;;4.20;99.90;;;;;;4212314;28;20253;-63
2023/03/08 01:17:34;;;;;;;33.63;18.77;;;4.20;99.90;;;;;;4211931;28;20257;-65
2023/03/08 01:19:36;;;;;;;34.33;20.47;;;4.20;99.90;;;;;;4211895;28;20318;-63
2023/03/08 01:21:37;;;;;;;33.93;20.53;;;4.30;99.90;;;;;;4213026;28;20265;-65
2023/03/08 01:23:38;;;;;;;34.17;19.70;;;4.20;99.90;;;;;;4210868;28;20296;-64
2023/03/08 01:25:39;;;;;;;38.70;20.90;;;4.20;99.90;;;;;;4212052;28;20285;-63
2023/03/08 01:27:40;;;;;;;37.43;20.97;;;4.20;99.90;;;;;;4211327;28;20433;-62
2023/03/08 01:29:42;;;;;;;33.30;20.10;;;4.20;99.90;;;;;;4212145;28;20272;-63
2023/03/08 01:31:44;;;;;;;39.03;21.07;;;4.20;99.90;;;;;;4210241;28;20253;-61
2023/03/08 01:33:46;;;;;;;38.23;22.00;;;4.20;99.90;;;;;;4212469;28;20674;-61
2023/03/08 01:35:47;;;;;;;40.87;23.17;;;4.20;99.90;;;;;;4211674;28;20609;-61
2023/03/08 01:37:54;;;;;;;44.07;21.03;;;4.20;99.90;;;;;;4211811;28;20253;-64
2023/03/08 01:39:55;;;;;;;36.07;20.87;;;4.20;99.90;;;;;;4210713;28;20736;-61
2023/03/08 01:41:56;;;;;;;35.90;20.33;;;4.20;99.90;;;;;;4212572;28;20268;-64
2023/03/08 01:43:58;;;;;;;42.07;22.50;;;4.30;99.90;;;;;;4211845;28;20721;-60
2023/03/08 01:46:20;;;;;;;42.87;21.07;;;4.20;99.90;;;;;;4210975;28;20265;-61
2023/03/08 01:48:29;;;;;;;40.43;21.10;;;4.30;99.90;;;;;;4211629;28;20266;-63
2023/03/08 01:50:31;;;;;;;40.80;24.73;;;4.30;99.90;;;;;;4212119;28;20663;-62
2023/03/08 01:52:40;;;;;;;38.40;22.23;;;4.30;99.90;;;;;;4210841;28;20330;-62
2023/03/08 01:54:53;;;;;;;34.87;19.60;;;4.30;99.90;;;;;;4211368;28;20280;-62
2023/03/08 01:57:01;;;;;;;40.40;20.13;;;4.30;99.90;;;;;;4211208;28;20264;-61
2023/03/08 01:59:03;;;;;;;34.97;19.10;;;4.30;99.90;;;;;;4210992;28;20623;-61
2023/03/08 02:01:04;;;;;;;35.93;20.13;;;4.40;99.90;;;;;;4210915;28;20342;-60
2023/03/08 02:03:09;;;;;;;36.10;20.33;;;4.40;99.90;;;;;;4210609;28;20273;-65
2023/03/08 02:05:10;;;;;;;26.27;16.17;;;4.40;99.90;;;;;;4211100;28;20330;-60
2023/03/08 02:07:11;;;;;;;27.23;15.53;;;4.40;99.90;;;;;;4209998;28;20373;-61
2023/03/08 02:09:12;;;;;;;33.27;16.93;;;4.50;99.90;;;;;;4211771;28;20675;-60
2023/03/08 02:11:16;;;;;;;33.57;18.20;;;4.50;99.90;;;;;;4211090;28;20670;-62
2023/03/08 02:13:19;;;;;;;35.30;19.10;;;4.60;99.90;;;;;;4212150;28;20308;-61
2023/03/08 02:15:20;;;;;;;30.30;17.33;;;4.60;99.90;;;;;;4210501;28;20760;-63
2023/03/08 02:17:22;;;;;;;35.53;17.77;;;4.60;99.90;;;;;;4212069;28;20306;-65
2023/03/08 02:19:49;;;;;;;34.20;19.83;;;4.60;99.90;;;;;;4210244;28;20333;-61
2023/03/08 02:21:50;;;;;;;27.53;16.73;;;4.60;99.90;;;;;;4211735;28;20284;-61
2023/03/08 02:23:52;;;;;;;31.17;17.90;;;4.70;99.90;;;;;;4210405;28;20707;-61
2023/03/08 02:26:04;;;;;;;28.50;17.23;;;4.70;99.90;;;;;;4211473;28;20273;-61
2023/03/08 02:28:05;;;;;;;30.17;16.63;;;4.70;99.90;;;;;;4209170;28;20705;-60
2023/03/08 02:30:08;;;;;;;33.83;18.13;;;4.70;99.90;;;;;;4210707;28;20806;-62
2023/03/08 02:32:09;;;;;;;30.83;17.20;;;4.70;99.90;;;;;;4209428;28;20270;-61
2023/03/08 02:34:10;;;;;;;29.77;17.87;;;4.80;99.90;;;;;;4211291;28;20280;-61
2023/03/08 02:36:11;;;;;;;31.70;17.60;;;4.80;99.90;;;;;;4210269;28;20693;-60
2023/03/08 02:38:14;;;;;;;29.63;16.57;;;4.80;99.90;;;;;;4211065;28;20264;-62
2023/03/08 02:40:15;;;;;;;33.33;18.50;;;4.80;99.90;;;;;;4209052;28;20748;-63
2023/03/08 02:42:16;;;;;;;36.93;20.63;;;4.80;99.90;;;;;;4209571;28;20393;-62
2023/03/08 02:44:17;;;;;;;37.27;21.50;;;4.70;99.90;;;;;;4210280;28;20248;-61
2023/03/08 02:46:19;;;;;;;39.97;21.33;;;4.50;99.90;;;;;;4209441;28;20309;-66
2023/03/08 02:48:20;;;;;;;37.47;21.30;;;4.40;99.90;;;;;;4210927;28;20257;-62
2023/03/08 02:50:21;;;;;;;43.33;21.03;;;4.30;99.90;;;;;;4209243;28;20261;-62
2023/03/08 02:52:22;;;;;;;36.73;21.63;;;4.30;99.90;;;;;;4211095;28;20269;-62
2023/03/08 02:54:23;;;;;;;37.43;21.10;;;4.30;99.90;;;;;;4209455;28;20289;-61
2023/03/08 02:56:24;;;;;;;37.47;21.40;;;4.30;99.90;;;;;;4210269;28;20814;-62
2023/03/08 02:58:25;;;;;;;35.37;20.70;;;4.20;99.90;;;;;;4209831;28;20801;-62
2023/03/08 03:00:26;;;;;;;38.80;21.83;;;4.20;99.90;;;;;;4210872;28;20297;-62
2023/03/08 03:02:27;;;;;;;36.23;21.90;;;4.30;99.90;;;;;;4209147;28;20767;-65
2023/03/08 03:04:30;;;;;;;40.87;21.47;;;4.30;99.90;;;;;;4210266;28;20260;-62
2023/03/08 03:06:31;;;;;;;39.80;22.33;;;4.30;99.90;;;;;;4209590;28;20277;-61
2023/03/08 03:08:33;;;;;;;34.90;20.80;;;4.30;99.90;;;;;;4209720;28;20284;-65
2023/03/08 03:10:35;;;;;;;38.30;21.67;;;4.30;99.90;;;;;;4209629;28;20397;-62
2023/03/08 03:12:36;;;;;;;36.93;21.47;;;4.20;99.90;;;;;;4210314;28;20256;-62
2023/03/08 03:14:38;;;;;;;38.03;21.43;;;4.20;99.90;;;;;;4210015;28;20284;-62
2023/03/08 03:16:39;;;;;;;40.77;23.27;;;4.20;99.90;;;;;;4209805;28;20357;-65
2023/03/08 03:18:41;;;;;;;39.23;22.00;;;4.10;99.90;;;;;;4209393;28;20358;-61
2023/03/08 03:20:42;;;;;;;47.47;22.63;;;4.00;99.90;;;;;;4192840;28;20338;-61
2023/03/08 03:22:43;;;;;;;39.07;22.23;;;3.90;99.90;;;;;;4171355;28;1191995;-60
2023/03/08 03:24:44;;;;;;;32.67;19.83;;;3.90;99.90;;;;;;4213047;28;20057;-61
2023/03/08 03:26:48;;;;;;;36.73;18.40;;;3.90;99.90;;;;;;4214882;28;20260;-62
2023/03/08 03:28:51;;;;;;;32.90;18.43;;;3.80;99.90;;;;;;4213629;28;20276;-63
2023/03/08 03:30:52;;;;;;;28.60;17.03;;;3.70;99.90;;;;;;4214661;28;20732;-61
2023/03/08 03:32:53;;;;;;;36.80;19.57;;;3.60;99.90;;;;;;4213309;28;20269;-60
2023/03/08 03:34:54;;;;;;;32.57;19.10;;;3.60;99.90;;;;;;4214809;28;20674;-61
2023/03/08 03:36:55;;;;;;;35.17;18.87;;;3.60;99.90;;;;;;4213533;28;20659;-60
2023/03/08 03:38:57;;;;;;;33.77;18.03;;;3.50;99.90;;;;;;4214311;28;20881;-61
2023/03/08 03:41:02;;;;;;;33.87;17.93;;;3.60;99.90;;;;;;4212842;28;20821;-60
2023/03/08 03:43:04;;;;;;;28.30;17.00;;;3.50;99.90;;;;;;4213481;28;20326;-60
2023/03/08 03:45:05;;;;;;;29.53;16.90;;;3.50;99.90;;;;;;4213445;28;20631;-60
2023/03/08 03:47:07;;;;;;;32.10;16.37;;;3.50;99.90;;;;;;4213929;28;20337;-62
2023/03/08 03:49:08;;;;;;;28.13;16.70;;;3.50;99.90;;;;;;4213095;28;20757;-62
2023/03/08 03:51:12;;;;;;;31.63;17.20;;;3.50;99.90;;;;;;4213606;28;20322;-62
2023/03/08 03:53:13;;;;;;;30.07;16.67;;;3.50;99.90;;;;;;4214086;28;20314;-62
2023/03/08 03:55:14;;;;;;;27.33;16.90;;;3.50;99.90;;;;;;4213452;28;20780;-63
2023/03/08 03:57:15;;;;;;;28.23;15.97;;;3.50;99.90;;;;;;4214212;28;20278;-61
2023/03/08 03:59:16;;;;;;;25.73;15.53;;;3.50;99.90;;;;;;4195848;28;20334;-64
2023/03/08 04:01:21;;;;;;;25.53;14.80;;;3.50;99.90;;;;;;4207465;28;20261;-61
2023/03/08 04:03:22;;;;;;;27.37;15.57;;;3.60;99.90;;;;;;4212276;28;20785;-63
2023/03/08 04:05:23;;;;;;;26.63;16.23;;;3.60;99.90;;;;;;4214169;28;20314;-61
2023/03/08 04:07:24;;;;;;;24.63;15.53;;;3.50;99.90;;;;;;4212783;28;20265;-61
2023/03/08 04:09:25;;;;;;;28.10;14.47;;;3.50;99.90;;;;;;4214283;28;20272;-62
2023/03/08 04:11:30;;;;;;;26.77;14.77;;;3.60;99.90;;;;;;4213027;28;20362;-61
2023/03/08 04:13:32;;;;;;;25.43;15.13;;;3.60;99.90;;;;;;4213044;28;20284;-62
2023/03/08 04:15:33;;;;;;;27.87;16.83;;;3.60;99.90;;;;;;4212347;28;20386;-61
2023/03/08 04:17:34;;;;;;;30.87;16.47;;;3.60;99.90;;;;;;4213674;28;20273;-63
2023/03/08 04:19:35;;;;;;;29.60;15.17;;;3.60;99.90;;;;;;4212443;28;20302;-60
2023/03/08 04:21:36;;;;;;;26.77;14.90;;;3.60;99.90;;;;;;4213267;28;20647;-63
2023/03/08 04:23:38;;;;;;;27.20;15.77;;;3.70;99.90;;;;;;4213228;28;20833;-62
2023/03/08 04:25:39;;;;;;;26.93;15.67;;;3.70;99.90;;;;;;4212231;28;20326;-61
2023/03/08 04:27:40;;;;;;;26.07;15.03;;;3.60;99.90;;;;;;4212977;28;20277;-61
2023/03/08 04:29:41;;;;;;;25.80;15.43;;;3.70;99.90;;;;;;4211996;28;20277;-65
2023/03/08 04:31:42;;;;;;;27.30;15.80;;;3.70;99.90;;;;;;4212376;28;20340;-64
2023/03/08 04:33:44;;;;;;;30.60;16.77;;;3.70;99.90;;;;;;4211850;28;20268;-62
2023/03/08 04:35:46;;;;;;;27.93;15.80;;;3.70;99.90;;;;;;4212752;28;20374;-63
2023/03/08 04:37:47;;;;;;;30.50;16.40;;;3.70;99.90;;;;;;4212385;28;20314;-62
2023/03/08 04:39:48;;;;;;;30.67;16.63;;;3.60;99.90;;;;;;4213745;28;20310;-61
2023/03/08 04:41:50;;;;;;;31.13;17.07;;;3.60;99.90;;;;;;4211778;28;20277;-61
2023/03/08 04:43:53;;;;;;;29.30;17.37;;;3.60;99.90;;;;;;4213470;28;20269;-61
2023/03/08 04:45:54;;;;;;;29.63;16.47;;;3.60;99.90;;;;;;4211847;28;20418;-61
2023/03/08 04:47:55;;;;;;;27.30;17.07;;;3.70;99.90;;;;;;4213207;28;20260;-61
2023/03/08 04:49:56;;;;;;;29.80;16.63;;;3.70;99.90;;;;;;4212517;28;20257;-61
2023/03/08 04:51:57;;;;;;;27.53;16.60;;;3.70;99.90;;;;;;4212584;28;20276;-61
2023/03/08 04:53:59;;;;;;;32.40;17.57;;;3.70;99.90;;;;;;4212619;28;20297;-60
2023/03/08 04:56:00;;;;;;;27.10;14.63;;;3.80;99.90;;;;;;4212836;28;20280;-62
2023/03/08 04:58:02;;;;;;;27.90;15.13;;;3.80;99.90;;;;;;4212248;28;20622;-61
2023/03/08 05:00:04;;;;;;;28.17;15.50;;;3.80;99.90;;;;;;4211950;28;20759;-65
2023/03/08 05:02:05;;;;;;;26.70;15.73;;;3.80;99.90;;;;;;4213126;28;20253;-64
2023/03/08 05:04:09;;;;;;;23.87;14.13;;;3.80;99.90;;;;;;4211150;28;20265;-63
2023/03/08 05:06:12;;;;;;;27.33;16.17;;;3.80;99.90;;;;;;4216722;28;20325;-65
2023/03/08 05:08:14;;;;;;;27.33;16.73;;;3.80;99.90;;;;;;4216220;28;20684;-61
2023/03/08 05:10:15;;;;;;;35.83;20.47;;;3.80;99.90;;;;;;4212399;28;20762;-58
2023/03/08 05:12:18;;;;;;;41.70;23.33;;;3.90;99.90;;;;;;4210906;28;20303;-63
2023/03/08 05:14:20;;;;;;;43.87;25.40;;;3.90;99.90;;;;;;4212932;28;20797;-62
2023/03/08 05:16:22;;;;;;;44.77;25.13;;;3.90;99.90;;;;;;4210653;28;20772;-61
2023/03/08 05:18:23;;;;;;;47.93;25.57;;;3.90;99.90;;;;;;4204990;28;20837;-61
2023/03/08 05:20:24;;;;;;;51.87;27.80;;;3.90;99.90;;;;;;4211114;28;20722;-61
2023/03/08 05:22:25;;;;;;;44.27;25.03;;;4.00;99.90;;;;;;4211260;28;20386;-61
2023/03/08 05:24:27;;;;;;;55.77;28.33;;;4.00;99.90;;;;;;4211965;28;20269;-61
2023/03/08 05:26:28;;;;;;;53.47;28.27;;;4.00;99.90;;;;;;4211353;28;20269;-62
2023/03/08 05:28:32;;;;;;;49.80;27.43;;;4.00;99.90;;;;;;4211351;28;20616;-61
2023/03/08 05:30:33;;;;;;;47.90;26.33;;;4.10;99.90;;;;;;4211272;28;20321;-63
2023/03/08 05:32:34;;;;;;;48.87;24.43;;;4.10;99.90;;;;;;4212026;28;20349;-63
2023/03/08 05:34:35;;;;;;;45.63;25.13;;;4.10;99.90;;;;;;4210690;28;20261;-64
2023/03/08 05:36:36;;;;;;;41.70;23.47;;;4.20;99.90;;;;;;4210554;28;20397;-61
2023/03/08 05:38:38;;;;;;;40.80;22.63;;;4.20;99.90;;;;;;4210515;28;20330;-64
2023/03/08 05:40:39;;;;;;;36.73;20.97;;;4.20;99.90;;;;;;4211962;28;20310;-61
2023/03/08 05:42:40;;;;;;;40.40;22.07;;;4.30;99.90;;;;;;4209789;28;20268;-62
2023/03/08 05:44:41;;;;;;;40.90;22.27;;;4.30;99.90;;;;;;4212130;28;20732;-63
2023/03/08 05:46:43;;;;;;;49.70;22.43;;;4.30;99.90;;;;;;4210016;28;21310;-60
2023/03/08 05:48:44;;;;;;;41.27;22.73;;;4.30;99.90;;;;;;4211796;28;20353;-62
2023/03/08 05:50:45;;;;;;;52.47;22.27;;;4.30;99.90;;;;;;4209892;28;20257;-65
2023/03/08 05:52:46;;;;;;;37.63;21.23;;;4.40;99.90;;;;;;4210285;28;20284;-61
2023/03/08 05:54:48;;;;;;;41.87;21.93;;;4.40;99.90;;;;;;4210454;28;20338;-61
2023/03/08 05:56:49;;;;;;;38.03;20.83;;;4.40;99.90;;;;;;4209279;28;20292;-61
2023/03/08 05:58:51;;;;;;;40.33;21.10;;;4.40;99.90;;;;;;4210557;28;20430;-60
2023/03/08 06:00:52;;;;;;;38.80;20.20;;;4.50;99.90;;;;;;4209374;28;20284;-61
2023/03/08 06:02:53;;;;;;;33.57;20.17;;;4.50;99.90;;;;;;4210923;28;20277;-60
2023/03/08 06:04:54;;;;;;;37.27;21.90;;;4.60;99.90;;;;;;4210657;28;20317;-62
2023/03/08 06:06:55;;;;;;;41.87;23.50;;;4.60;99.90;;;;;;4211790;28;20050;-61
2023/03/08 06:08:57;;;;;;;34.70;21.40;;;4.70;99.90;;;;;;4209888;28;20272;-61
2023/03/08 06:10:58;;;;;;;41.80;21.30;;;4.70;99.90;;;;;;4211679;28;20691;-62
2023/03/08 06:12:59;;;;;;;41.10;21.50;;;4.80;99.90;;;;;;4210584;28;20268;-61
2023/03/08 06:15:00;;;;;;;38.37;20.27;;;4.80;99.90;;;;;;4210846;28;20048;-60
2023/03/08 06:17:01;;;;;;;38.53;21.77;;;4.90;99.90;;;;;;4210644;28;20058;-60
2023/03/08 06:19:02;;;;;;;31.70;19.27;;;4.90;99.90;;;;;;4211004;28;20032;-56
2023/03/08 06:21:08;;;;;;;40.67;21.13;;;5.00;99.90;;;;;;4209727;28;20028;-62
2023/03/08 06:23:09;;;;;;;39.03;21.70;;;5.00;99.90;;;;;;4211070;28;20345;-61
2023/03/08 06:25:10;;;;;;;38.10;22.17;;;5.10;99.90;;;;;;4210752;28;20020;-60
2023/03/08 06:27:11;;;;;;;40.03;22.80;;;5.10;99.90;;;;;;4210651;28;20434;-60
2023/03/08 06:29:12;;;;;;;40.80;24.03;;;5.20;99.90;;;;;;4210532;28;20051;-60
2023/03/08 06:31:16;;;;;;;42.27;25.77;;;5.20;99.90;;;;;;4210089;28;20035;-63
2023/03/08 06:33:20;;;;;;;41.67;22.33;;;5.20;99.90;;;;;;4210969;28;20032;-61
2023/03/08 06:35:21;;;;;;;43.27;25.63;;;5.20;99.90;;;;;;4210080;28;20044;-61
2023/03/08 06:37:22;;;;;;;41.83;23.27;;;5.20;99.90;;;;;;4210150;28;20039;-61
2023/03/08 06:39:23;;;;;;;47.83;22.73;;;5.30;99.90;;;;;;4209403;28;20089;-61
2023/03/08 06:41:24;;;;;;;41.93;23.03;;;5.30;99.90;;;;;;4211329;28;20541;-60
2023/03/08 06:43:26;;;;;;;48.77;26.93;;;5.30;99.90;;;;;;4209447;28;20062;-61
2023/03/08 06:45:27;;;;;;;57.37;27.07;;;5.30;99.90;;;;;;4211279;28;20361;-61
2023/03/08 06:47:29;;;;;;;47.90;26.00;;;5.40;99.90;;;;;;4210082;28;20066;-62
2023/03/08 06:49:31;;;;;;;58.07;27.10;;;5.40;99.90;;;;;;4210376;28;20036;-61
2023/03/08 06:51:32;;;;;;;59.57;29.30;;;5.50;99.90;;;;;;4210062;28;20016;-62
2023/03/08 06:53:39;;;;;;;57.60;29.33;;;5.50;99.90;;;;;;4210355;28;20031;-62
2023/03/08 06:55:41;;;;;;;57.17;30.60;;;5.50;99.90;;;;;;4209882;28;20056;-60
2023/03/08 06:57:42;;;;;;;55.80;30.83;;;5.50;99.90;;;;;;4210945;28;20024;-60
2023/03/08 06:59:43;;;;;;;61.37;31.87;;;5.50;99.90;;;;;;4209550;28;20097;-62
2023/03/08 07:01:44;;;;;;;63.33;32.10;;;5.50;99.90;;;;;;4209468;28;20545;-62
2023/03/08 07:03:47;;;;;;;59.83;31.57;;;5.60;99.90;;;;;;4210528;28;20066;-61
2023/03/08 07:05:48;;;;;;;65.80;34.17;;;5.60;99.90;;;;;;4210068;28;20024;-61
2023/03/08 07:07:49;;;;;;;61.87;32.63;;;5.60;99.90;;;;;;4210043;28;20165;-62
2023/03/08 07:09:51;;;;;;;62.70;33.17;;;5.60;99.90;;;;;;4209075;28;20040;-60
2023/03/08 07:11:52;;;;;;;65.83;32.50;;;5.70;99.90;;;;;;4211030;28;20452;-61
2023/03/08 07:13:53;;;;;;;58.40;33.67;;;5.70;99.90;;;;;;4209289;28;20028;-61
2023/03/08 07:15:55;;;;;;;58.33;33.80;;;5.80;99.90;;;;;;4210775;28;20036;-61
2023/03/08 07:17:57;;;;;;;52.43;30.17;;;5.90;99.90;;;;;;4208766;28;20044;-60
2023/03/08 07:19:58;;;;;;;60.53;32.77;;;6.00;99.90;;;;;;4210050;28;20123;-61
2023/03/08 07:21:59;;;;;;;63.77;32.97;;;6.00;99.90;;;;;;4208683;28;20097;-61
2023/03/08 07:24:00;;;;;;;63.97;33.00;;;6.10;99.90;;;;;;4210002;28;20093;-61
2023/03/08 07:26:06;;;;;;;66.13;34.03;;;6.10;99.90;;;;;;4209793;28;20477;-62
2023/03/08 07:28:07;;;;;;;63.70;32.93;;;6.20;99.90;;;;;;4210100;28;20039;-61
2023/03/08 07:30:10;;;;;;;67.50;32.63;;;6.20;99.90;;;;;;4209404;28;20101;-61
2023/03/08 07:32:11;;;;;;;54.30;29.93;;;6.30;99.90;;;;;;4209739;28;20044;-62
2023/03/08 07:34:12;;;;;;;68.13;37.10;;;6.40;99.90;;;;;;4209354;28;20140;-61
2023/03/08 07:36:13;;;;;;;73.73;36.13;;;6.40;99.90;;;;;;4210213;28;20442;-61
2023/03/08 07:38:15;;;;;;;61.80;35.40;;;6.60;99.90;;;;;;4210434;28;20517;-61
2023/03/08 07:40:16;;;;;;;61.97;30.93;;;6.80;99.90;;;;;;4209798;28;20418;-62
2023/03/08 07:42:18;;;;;;;51.50;28.20;;;6.90;99.90;;;;;;4210867;28;20442;-62
2023/03/08 07:44:19;;;;;;;47.83;24.03;;;7.20;99.90;;;;;;4209789;28;20553;-61
2023/03/08 07:46:20;;;;;;;68.70;24.87;;;7.50;99.90;;;;;;4210047;28;20493;-61
2023/03/08 07:48:21;;;;;;;45.13;22.07;;;7.60;99.90;;;;;;4208854;28;20495;-62
2023/03/08 07:50:23;;;;;;;40.63;20.43;;;7.70;99.90;;;;;;4210693;28;20036;-64
2023/03/08 07:52:28;;;;;;;45.83;19.67;;;7.70;99.90;;;;;;4209436;28;20081;-61
2023/03/08 07:54:29;;;;;;;40.50;20.33;;;7.90;99.90;;;;;;4210772;28;20050;-60
2023/03/08 07:56:30;;;;;;;51.17;21.47;;;8.20;99.90;;;;;;4190809;28;20106;-61
2023/03/08 07:58:32;;;;;;;39.40;20.27;;;8.70;99.90;;;;;;4210605;28;20078;-62
2023/03/08 08:00:33;;;;;;;47.50;21.00;;;9.30;99.90;;;;;;4209455;28;20036;-63
2023/03/08 08:02:35;;;;;;;37.70;18.73;;;9.60;99.90;;;;;;4210592;28;20013;-62
2023/03/08 08:04:37;;;;;;;77.10;46.73;;;9.90;99.90;;;;;;4210005;28;20426;-61
2023/03/08 08:06:40;;;;;;;38.87;22.97;;;10.00;99.90;;;;;;4211385;28;20422;-61
2023/03/08 08:08:41;;;;;;;43.90;21.37;;;10.10;99.90;;;;;;4213208;28;20053;-60
2023/03/08 08:10:43;;;;;;;42.50;19.13;;;10.40;99.90;;;;;;4213032;28;20028;-63
2023/03/08 08:12:44;;;;;;;33.87;15.83;;;10.80;99.90;;;;;;4212923;28;20548;-65
2023/03/08 08:14:45;;;;;;;37.87;18.27;;;11.00;99.90;;;;;;4212429;28;20024;-61
2023/03/08 08:16:46;;;;;;;39.33;16.87;;;11.30;99.90;;;;;;4212848;28;20133;-62
2023/03/08 08:18:50;;;;;;;35.97;17.57;;;11.50;99.90;;;;;;4212249;28;20028;-61
2023/03/08 08:21:02;;;;;;;38.07;18.27;;;11.50;99.90;;;;;;4213384;28;20525;-61
2023/03/08 08:23:06;;;;;;;34.30;16.23;;;11.60;99.90;;;;;;4211137;28;20055;-61
2023/03/08 08:25:08;;;;;;;30.97;15.63;;;11.80;99.90;;;;;;4213552;28;20097;-61
2023/03/08 08:27:09;;;;;;;28.40;14.50;;;11.80;99.90;;;;;;4212132;28;20040;-62
2023/03/08 08:29:10;;;;;;;32.10;15.63;;;12.00;99.90;;;;;;4213526;28;20028;-61
2023/03/08 08:31:15;;;;;;;19.93;11.80;;;12.30;99.90;;;;;;4212146;28;20032;-60
2023/03/08 08:33:16;;;;;;;20.03;12.83;;;12.30;99.90;;;;;;4213417;28;20426;-61
2023/03/08 08:35:17;;;;;;;25.57;13.57;;;12.10;99.90;;;;;;4211937;28;20051;-61
2023/03/08 08:37:19;;;;;;;13.13;8.40;;;12.00;99.90;;;;;;4212929;28;20028;-64
2023/03/08 08:39:20;;;;;;;19.13;8.20;;;11.70;99.90;;;;;;4211975;28;20473;-61
2023/03/08 08:41:23;;;;;;;17.37;9.33;;;11.80;99.90;;;;;;4212207;28;20479;-60
2023/03/08 08:43:25;;;;;;;17.17;8.63;;;11.90;99.90;;;;;;4212373;28;20442;-64
2023/03/08 08:45:26;;;;;;;7.90;5.17;;;12.00;99.90;;;;;;4211934;28;20032;-64
2023/03/08 08:47:28;;;;;;;6.60;4.60;;;12.10;99.90;;;;;;4211817;28;20036;-61
2023/03/08 08:49:29;;;;;;;9.63;5.87;;;12.00;99.90;;;;;;4211055;28;20051;-60
2023/03/08 08:51:31;;;;;;;11.17;5.83;;;12.00;99.90;;;;;;4212463;28;20534;-61
2023/03/08 08:53:32;;;;;;;8.57;5.13;;;12.10;99.90;;;;;;4211484;28;20081;-61
2023/03/08 08:55:33;;;;;;;3.60;2.70;;;12.30;99.90;;;;;;4194136;28;20079;-61
2023/03/08 08:57:35;;;;;;;3.73;2.57;;;12.60;99.90;;;;;;4210808;28;20036;-61
2023/03/08 08:59:36;;;;;;;2.70;2.50;;;12.80;99.90;;;;;;4212585;28;20073;-61
2023/03/08 09:01:42;;;;;;;5.07;2.07;;;13.20;99.90;;;;;;4211614;28;20472;-61
2023/03/08 09:03:44;;;;;;;16.33;9.37;;;13.60;99.90;;;;;;4211711;28;20093;-64
2023/03/08 09:05:46;;;;;;;19.83;11.90;;;13.60;99.90;;;;;;4210652;28;20078;-64
2023/03/08 09:07:47;;;;;;;15.60;9.77;;;13.00;99.90;;;;;;4211861;28;20036;-65
2023/03/08 09:09:48;;;;;;;11.23;7.03;;;12.70;99.90;;;;;;4211066;28;20414;-62
2023/03/08 09:11:49;;;;;;;10.83;5.87;;;12.50;99.90;;;;;;4211701;28;20028;-63
2023/03/08 09:13:51;;;;;;;15.33;4.87;;;11.90;99.90;;;;;;4210768;28;20028;-63
2023/03/08 09:15:52;;;;;;;17.00;5.77;;;11.70;99.90;;;;;;4210963;28;20085;-63
2023/03/08 09:17:53;;;;;;;5.57;3.80;;;11.60;99.90;;;;;;4209862;28;20052;-64
2023/03/08 09:19:54;;;;;;;9.40;4.00;;;11.60;99.90;;;;;;4211485;28;20044;-62
2023/03/08 09:21:56;;;;;;;4.70;2.83;;;11.60;99.90;;;;;;4211853;28;20032;-62
2023/03/08 09:24:02;;;;;;;6.87;3.33;;;11.70;99.90;;;;;;4211270;28;21058;-61
2023/03/08 09:26:04;;;;;;;5.73;3.67;;;11.70;99.90;;;;;;4212458;28;20509;-61
2023/03/08 09:28:06;;;;;;;7.43;3.90;;;11.80;99.90;;;;;;4211302;28;20437;-61
2023/03/08 09:30:12;;;;;;;6.40;3.43;;;11.90;99.90;;;;;;4211789;28;20101;-61
2023/03/08 09:32:13;;;;;;;7.27;4.50;;;12.00;99.90;;;;;;4210895;28;20361;-63
2023/03/08 09:34:15;;;;;;;5.10;3.40;;;12.00;99.90;;;;;;4212177;28;20028;-60
2023/03/08 09:36:17;;;;;;;7.93;3.10;;;12.10;99.90;;;;;;4210531;28;20113;-62
2023/03/08 09:38:18;;;;;;;3.00;1.70;;;12.20;99.90;;;;;;4211616;28;20036;-61
2023/03/08 09:40:24;;;;;;;2.20;1.37;;;12.30;99.90;;;;;;4210906;28;20028;-60
2023/03/08 09:42:28;;;;;;;3.50;1.80;;;12.40;99.90;;;;;;4211698;28;20036;-60
2023/03/08 09:44:44;;;;;;;2.73;1.50;;;12.50;99.90;;;;;;4210750;28;20081;-62
2023/03/08 09:46:55;;;;;;;2.43;1.67;;;12.50;99.90;;;;;;4212150;28;20066;-61
2023/03/08 09:48:59;;;;;;;3.17;1.53;;;12.60;99.90;;;;;;4210983;28;20105;-60
2023/03/08 09:51:09;;;;;;;3.70;1.40;;;12.60;99.90;;;;;;4211977;28;20085;-61
2023/03/08 09:53:19;;;;;;;4.53;1.58;;;12.60;99.90;;;;;;4210106;28;20093;-60
2023/03/08 09:55:30;;;;;;;4.22;1.42;;;12.50;99.90;;;;;;4211872;28;20092;-60
2023/03/08 09:57:44;;;;;;;3.05;1.70;;;12.60;99.90;;;;;;4210707;28;20039;-62
2023/03/08 09:59:57;;;;;;;2.83;2.20;;;12.60;99.90;;;;;;4212097;28;20087;-63
2023/03/08 10:01:58;;;;;;;5.23;1.90;;;12.50;99.90;;;;;;4210196;28;20040;-62
2023/03/08 10:04:40;;;;;;;4.43;2.00;;;12.50;99.90;;;;;;4211680;28;20020;-61
2023/03/08 10:07:00;;;;;;;5.83;1.93;;;12.50;99.90;;;;;;4210171;28;20040;-63
2023/03/08 10:09:34;;;;;;;8.48;2.10;;;12.60;99.90;;;;;;4210549;28;20044;-62
2023/03/08 10:11:43;;;;;;;5.80;2.20;;;12.50;99.90;;;;;;4202786;28;20137;-61
2023/03/08 10:13:51;;;;;;;8.07;1.90;;;12.40;99.90;;;;;;4193380;28;20037;-61
2023/03/08 10:16:09;;;;;;;3.97;1.60;;;12.30;99.90;;;;;;4210016;28;20093;-62
2023/03/08 10:18:44;;;;;;;4.23;1.37;;;12.40;99.90;;;;;;4211042;28;20026;-62
2023/03/08 10:20:47;;;;;;;9.67;1.77;;;12.30;99.90;;;;;;4210680;28;20641;-61
2023/03/08 10:22:56;;;;;;;11.60;3.90;;;12.20;99.90;;;;;;4209759;28;20698;-60
2023/03/08 10:25:23;;;;;;;8.90;3.37;;;12.20;99.90;;;;;;4210574;28;20063;-61
2023/03/08 10:27:27;;;;;;;11.10;3.83;;;12.10;99.90;;;;;;4210658;28;20629;-62
2023/03/08 10:29:28;;;;;;;7.73;3.77;;;12.00;99.90;;;;;;4209609;28;20085;-62
2023/03/08 10:31:32;;;;;;;9.77;3.60;;;11.90;99.90;;;;;;4210642;28;20023;-61